sensor_id;sensor_type;location;lat;lon;timestamp;temperature;humidity
5130;DHT22;2583;50.946;6.954;2022-07-24T00:01:34;21.00;99.30
5130;DHT22;2583;50.946;6.954;2022-07-24T00:04:03;21.00;99.80
5130;DHT22;2583;50.946;6.954;2022-07-24T00:06:30;20.90;99.00
5130;DHT22;2583;50.946;6.954;2022-07-24T00:08:57;20.80;99.20
5130;DHT22;2583;50.946;6.954;2022-07-24T00:11:23;20.90;99.90
5130;DHT22;2583;50.946;6.954;2022-07-24T00:13:50;20.80;99.90
5130;DHT22;2583;50.946;6.954;2022-07-24T00:16:17;20.80;99.90
5130;DHT22;2583;50.946;6.954;2022-07-24T00:18:44;20.80;99.90
5130;DHT22;2583;50.946;6.954;2022-07-24T00:21:11;20.70;99.90
5130;DHT22;2583;50.946;6.954;2022-07-24T00:23:38;20.70;99.90
5130;DHT22;2583;50.946;6.954;2022-07-24T00:26:05;20.60;99.90
5130;DHT22;2583;50.946;6.954;2022-07-24T00:28:32;20.60;99.90
5130;DHT22;2583;50.946;6.954;2022-07-24T00:30:58;20.60;99.90
5130;DHT22;2583;50.946;6.954;2022-07-24T00:33:25;20.50;99.90
5130;DHT22;2583;50.946;6.954;2022-07-24T00:35:52;20.50;99.90
5130;DHT22;2583;50.946;6.954;2022-07-24T00:38:19;20.40;99.90
5130;DHT22;2583;50.946;6.954;2022-07-24T00:40:46;20.40;99.90
5130;DHT22;2583;50.946;6.954;2022-07-24T00:43:13;20.40;99.90
5130;DHT22;2583;50.946;6.954;2022-07-24T00:45:41;20.40;99.90
5130;DHT22;2583;50.946;6.954;2022-07-24T00:48:10;20.30;99.90
5130;DHT22;2583;50.946;6.954;2022-07-24T00:50:37;20.30;99.90
5130;DHT22;2583;50.946;6.954;2022-07-24T00:53:05;20.30;99.90
5130;DHT22;2583;50.946;6.954;2022-07-24T00:55:33;20.30;99.90
5130;DHT22;2583;50.946;6.954;2022-07-24T00:58:00;20.20;99.90
5130;DHT22;2583;50.946;6.954;2022-07-24T01:00:27;20.20;99.90
5130;DHT22;2583;50.946;6.954;2022-07-24T01:02:54;20.20;99.90
5130;DHT22;2583;50.946;6.954;2022-07-24T01:05:22;20.10;99.90
5130;DHT22;2583;50.946;6.954;2022-07-24T01:07:49;20.10;99.90
5130;DHT22;2583;50.946;6.954;2022-07-24T01:10:16;20.10;99.90
5130;DHT22;2583;50.946;6.954;2022-07-24T01:12:43;20.10;99.90
5130;DHT22;2583;50.946;6.954;2022-07-24T01:15:11;20.00;99.90
5130;DHT22;2583;50.946;6.954;2022-07-24T01:17:40;20.00;99.90
5130;DHT22;2583;50.946;6.954;2022-07-24T01:20:08;20.00;99.90
5130;DHT22;2583;50.946;6.954;2022-07-24T01:22:35;20.00;99.90
5130;DHT22;2583;50.946;6.954;2022-07-24T01:25:03;20.00;99.90
5130;DHT22;2583;50.946;6.954;2022-07-24T01:27:29;20.00;99.90
5130;DHT22;2583;50.946;6.954;2022-07-24T01:29:56;20.00;99.90
5130;DHT22;2583;50.946;6.954;2022-07-24T01:32:23;19.90;99.90
5130;DHT22;2583;50.946;6.954;2022-07-24T01:34:50;19.90;99.90
5130;DHT22;2583;50.946;6.954;2022-07-24T01:37:17;19.80;99.90
5130;DHT22;2583;50.946;6.954;2022-07-24T01:39:43;19.80;99.90
5130;DHT22;2583;50.946;6.954;2022-07-24T01:42:10;19.80;99.90
5130;DHT22;2583;50.946;6.954;2022-07-24T01:44:37;19.80;99.90
5130;DHT22;2583;50.946;6.954;2022-07-24T01:47:04;19.70;99.90
5130;DHT22;2583;50.946;6.954;2022-07-24T01:49:31;19.70;99.90
5130;DHT22;2583;50.946;6.954;2022-07-24T01:51:57;19.70;99.90
5130;DHT22;2583;50.946;6.954;2022-07-24T01:54:24;19.70;99.90
5130;DHT22;2583;50.946;6.954;2022-07-24T01:56:51;19.70;99.90
5130;DHT22;2583;50.946;6.954;2022-07-24T01:59:18;19.70;99.90
5130;DHT22;2583;50.946;6.954;2022-07-24T02:01:45;19.70;99.90
5130;DHT22;2583;50.946;6.954;2022-07-24T02:04:12;19.60;99.90
5130;DHT22;2583;50.946;6.954;2022-07-24T02:06:39;19.60;99.90
5130;DHT22;2583;50.946;6.954;2022-07-24T02:09:05;19.60;99.90
5130;DHT22;2583;50.946;6.954;2022-07-24T02:11:33;19.50;99.90
5130;DHT22;2583;50.946;6.954;2022-07-24T02:14:00;19.50;99.90
5130;DHT22;2583;50.946;6.954;2022-07-24T02:16:27;19.50;99.90
5130;DHT22;2583;50.946;6.954;2022-07-24T02:18:54;19.50;99.90
5130;DHT22;2583;50.946;6.954;2022-07-24T02:21:21;19.40;99.90
5130;DHT22;2583;50.946;6.954;2022-07-24T02:23:48;19.40;99.90
5130;DHT22;2583;50.946;6.954;2022-07-24T02:26:15;19.40;99.90
5130;DHT22;2583;50.946;6.954;2022-07-24T02:28:42;19.40;99.90
5130;DHT22;2583;50.946;6.954;2022-07-24T02:31:08;19.30;99.90
5130;DHT22;2583;50.946;6.954;2022-07-24T02:33:35;19.30;99.90
5130;DHT22;2583;50.946;6.954;2022-07-24T02:36:02;19.30;99.90
5130;DHT22;2583;50.946;6.954;2022-07-24T02:38:30;19.20;99.90
5130;DHT22;2583;50.946;6.954;2022-07-24T02:40:56;19.20;99.90
5130;DHT22;2583;50.946;6.954;2022-07-24T02:43:23;19.20;99.90
5130;DHT22;2583;50.946;6.954;2022-07-24T02:45:50;19.20;99.90
5130;DHT22;2583;50.946;6.954;2022-07-24T02:48:19;19.20;99.90
5130;DHT22;2583;50.946;6.954;2022-07-24T02:50:47;19.10;99.90
5130;DHT22;2583;50.946;6.954;2022-07-24T02:53:14;19.10;99.90
5130;DHT22;2583;50.946;6.954;2022-07-24T02:55:41;19.10;99.90
5130;DHT22;2583;50.946;6.954;2022-07-24T02:58:08;19.00;99.90
5130;DHT22;2583;50.946;6.954;2022-07-24T03:00:35;19.00;99.90
5130;DHT22;2583;50.946;6.954;2022-07-24T03:03:02;19.00;99.90
5130;DHT22;2583;50.946;6.954;2022-07-24T03:05:29;18.90;99.90
5130;DHT22;2583;50.946;6.954;2022-07-24T03:07:56;18.90;99.90
5130;DHT22;2583;50.946;6.954;2022-07-24T03:10:23;18.90;99.90
5130;DHT22;2583;50.946;6.954;2022-07-24T03:12:49;18.90;99.90
5130;DHT22;2583;50.946;6.954;2022-07-24T03:15:16;18.80;99.90
5130;DHT22;2583;50.946;6.954;2022-07-24T03:17:55;18.80;99.90
5130;DHT22;2583;50.946;6.954;2022-07-24T03:20:26;18.80;99.90
5130;DHT22;2583;50.946;6.954;2022-07-24T03:22:53;18.80;99.90
5130;DHT22;2583;50.946;6.954;2022-07-24T03:25:21;18.80;99.90
5130;DHT22;2583;50.946;6.954;2022-07-24T03:27:48;18.80;99.90
5130;DHT22;2583;50.946;6.954;2022-07-24T03:30:16;18.70;99.90
5130;DHT22;2583;50.946;6.954;2022-07-24T03:32:43;18.70;99.90
5130;DHT22;2583;50.946;6.954;2022-07-24T03:35:10;18.70;99.90
5130;DHT22;2583;50.946;6.954;2022-07-24T03:37:38;18.60;99.90
5130;DHT22;2583;50.946;6.954;2022-07-24T03:40:05;18.60;99.90
5130;DHT22;2583;50.946;6.954;2022-07-24T03:42:32;18.60;99.90
5130;DHT22;2583;50.946;6.954;2022-07-24T03:44:59;18.50;99.90
5130;DHT22;2583;50.946;6.954;2022-07-24T03:47:26;18.50;99.90
5130;DHT22;2583;50.946;6.954;2022-07-24T03:49:53;18.50;99.90
5130;DHT22;2583;50.946;6.954;2022-07-24T03:52:21;18.50;99.90
5130;DHT22;2583;50.946;6.954;2022-07-24T03:54:50;18.50;99.90
5130;DHT22;2583;50.946;6.954;2022-07-24T03:57:17;18.50;99.90
5130;DHT22;2583;50.946;6.954;2022-07-24T03:59:43;18.50;99.90
5130;DHT22;2583;50.946;6.954;2022-07-24T04:02:10;18.50;99.90
5130;DHT22;2583;50.946;6.954;2022-07-24T04:04:37;18.50;99.90
5130;DHT22;2583;50.946;6.954;2022-07-24T04:07:04;18.50;99.90
5130;DHT22;2583;50.946;6.954;2022-07-24T04:09:31;18.50;99.90
5130;DHT22;2583;50.946;6.954;2022-07-24T04:11:59;18.50;99.90
5130;DHT22;2583;50.946;6.954;2022-07-24T04:14:26;18.50;99.90
5130;DHT22;2583;50.946;6.954;2022-07-24T04:16:52;18.50;99.90
5130;DHT22;2583;50.946;6.954;2022-07-24T04:19:19;18.50;99.90
5130;DHT22;2583;50.946;6.954;2022-07-24T04:21:46;18.50;99.90
5130;DHT22;2583;50.946;6.954;2022-07-24T04:24:13;18.50;99.90
5130;DHT22;2583;50.946;6.954;2022-07-24T04:26:40;18.50;99.90
5130;DHT22;2583;50.946;6.954;2022-07-24T04:29:07;18.50;99.90
5130;DHT22;2583;50.946;6.954;2022-07-24T04:31:35;18.60;99.90
5130;DHT22;2583;50.946;6.954;2022-07-24T04:34:02;18.60;99.90
5130;DHT22;2583;50.946;6.954;2022-07-24T04:36:29;18.60;99.90
5130;DHT22;2583;50.946;6.954;2022-07-24T04:38:55;18.60;99.90
5130;DHT22;2583;50.946;6.954;2022-07-24T04:41:22;18.60;99.90
5130;DHT22;2583;50.946;6.954;2022-07-24T04:43:50;18.60;99.90
5130;DHT22;2583;50.946;6.954;2022-07-24T04:46:17;18.60;99.90
5130;DHT22;2583;50.946;6.954;2022-07-24T04:48:44;18.70;99.90
5130;DHT22;2583;50.946;6.954;2022-07-24T04:51:12;18.70;99.90
5130;DHT22;2583;50.946;6.954;2022-07-24T04:53:38;18.70;99.90
5130;DHT22;2583;50.946;6.954;2022-07-24T04:56:06;18.80;99.90
5130;DHT22;2583;50.946;6.954;2022-07-24T04:58:33;18.70;99.90
5130;DHT22;2583;50.946;6.954;2022-07-24T05:00:59;18.80;99.90
5130;DHT22;2583;50.946;6.954;2022-07-24T05:03:27;18.80;99.90
5130;DHT22;2583;50.946;6.954;2022-07-24T05:05:54;18.90;99.90
5130;DHT22;2583;50.946;6.954;2022-07-24T05:08:21;18.90;99.90
5130;DHT22;2583;50.946;6.954;2022-07-24T05:10:48;19.00;99.90
5130;DHT22;2583;50.946;6.954;2022-07-24T05:13:15;19.00;99.90
5130;DHT22;2583;50.946;6.954;2022-07-24T05:15:41;19.00;99.90
5130;DHT22;2583;50.946;6.954;2022-07-24T05:18:09;19.00;99.90
5130;DHT22;2583;50.946;6.954;2022-07-24T05:20:36;19.00;99.90
5130;DHT22;2583;50.946;6.954;2022-07-24T05:23:03;19.10;99.90
5130;DHT22;2583;50.946;6.954;2022-07-24T05:25:30;19.20;99.90
5130;DHT22;2583;50.946;6.954;2022-07-24T05:27:56;19.20;99.90
5130;DHT22;2583;50.946;6.954;2022-07-24T05:30:23;19.20;99.90
5130;DHT22;2583;50.946;6.954;2022-07-24T05:32:50;19.30;99.90
5130;DHT22;2583;50.946;6.954;2022-07-24T05:35:17;19.30;99.90
5130;DHT22;2583;50.946;6.954;2022-07-24T05:37:54;19.30;99.90
5130;DHT22;2583;50.946;6.954;2022-07-24T05:40:21;19.40;99.90
5130;DHT22;2583;50.946;6.954;2022-07-24T05:42:48;19.40;99.90
5130;DHT22;2583;50.946;6.954;2022-07-24T05:45:14;19.50;99.90
5130;DHT22;2583;50.946;6.954;2022-07-24T05:47:41;19.50;99.90
5130;DHT22;2583;50.946;6.954;2022-07-24T05:50:10;19.50;99.90
5130;DHT22;2583;50.946;6.954;2022-07-24T05:52:37;19.60;99.90
5130;DHT22;2583;50.946;6.954;2022-07-24T05:55:04;19.60;99.90
5130;DHT22;2583;50.946;6.954;2022-07-24T05:57:31;19.60;99.90
5130;DHT22;2583;50.946;6.954;2022-07-24T05:59:58;19.70;99.90
5130;DHT22;2583;50.946;6.954;2022-07-24T06:02:27;19.70;99.90
5130;DHT22;2583;50.946;6.954;2022-07-24T06:04:53;19.70;99.90
5130;DHT22;2583;50.946;6.954;2022-07-24T06:07:20;19.70;99.90
5130;DHT22;2583;50.946;6.954;2022-07-24T06:09:47;19.80;99.90
5130;DHT22;2583;50.946;6.954;2022-07-24T06:12:14;19.80;99.90
5130;DHT22;2583;50.946;6.954;2022-07-24T06:14:42;19.80;99.90
5130;DHT22;2583;50.946;6.954;2022-07-24T06:17:09;19.90;99.90
5130;DHT22;2583;50.946;6.954;2022-07-24T06:19:36;20.00;99.90
5130;DHT22;2583;50.946;6.954;2022-07-24T06:22:03;20.00;99.90
5130;DHT22;2583;50.946;6.954;2022-07-24T06:24:30;20.00;99.90
5130;DHT22;2583;50.946;6.954;2022-07-24T06:26:56;20.10;99.90
5130;DHT22;2583;50.946;6.954;2022-07-24T06:29:39;20.20;99.90
5130;DHT22;2583;50.946;6.954;2022-07-24T06:32:06;20.30;99.90
5130;DHT22;2583;50.946;6.954;2022-07-24T06:34:33;20.30;99.90
5130;DHT22;2583;50.946;6.954;2022-07-24T06:36:59;20.40;99.90
5130;DHT22;2583;50.946;6.954;2022-07-24T06:39:26;20.50;99.90
5130;DHT22;2583;50.946;6.954;2022-07-24T06:41:53;20.50;99.90
5130;DHT22;2583;50.946;6.954;2022-07-24T06:44:20;20.60;99.90
5130;DHT22;2583;50.946;6.954;2022-07-24T06:46:48;20.60;99.90
5130;DHT22;2583;50.946;6.954;2022-07-24T06:49:15;20.70;99.90
5130;DHT22;2583;50.946;6.954;2022-07-24T06:51:42;20.80;99.90
5130;DHT22;2583;50.946;6.954;2022-07-24T06:54:08;20.80;99.90
5130;DHT22;2583;50.946;6.954;2022-07-24T06:56:35;20.80;99.90
5130;DHT22;2583;50.946;6.954;2022-07-24T06:59:02;20.90;99.90
5130;DHT22;2583;50.946;6.954;2022-07-24T07:01:29;21.00;99.90
5130;DHT22;2583;50.946;6.954;2022-07-24T07:03:56;21.10;99.90
5130;DHT22;2583;50.946;6.954;2022-07-24T07:06:23;21.20;99.90
5130;DHT22;2583;50.946;6.954;2022-07-24T07:08:50;21.30;99.90
5130;DHT22;2583;50.946;6.954;2022-07-24T07:11:17;21.40;99.90
5130;DHT22;2583;50.946;6.954;2022-07-24T07:13:43;21.50;99.90
5130;DHT22;2583;50.946;6.954;2022-07-24T07:16:10;21.50;99.90
5130;DHT22;2583;50.946;6.954;2022-07-24T07:18:37;21.60;99.20
5130;DHT22;2583;50.946;6.954;2022-07-24T07:21:06;21.70;98.80
5130;DHT22;2583;50.946;6.954;2022-07-24T07:23:33;21.80;98.20
5130;DHT22;2583;50.946;6.954;2022-07-24T07:26:00;21.90;96.10
5130;DHT22;2583;50.946;6.954;2022-07-24T07:28:27;22.00;95.20
5130;DHT22;2583;50.946;6.954;2022-07-24T07:30:54;22.10;94.10
5130;DHT22;2583;50.946;6.954;2022-07-24T07:33:21;22.20;93.40
5130;DHT22;2583;50.946;6.954;2022-07-24T07:35:48;22.20;93.10
5130;DHT22;2583;50.946;6.954;2022-07-24T07:38:16;22.30;92.90
5130;DHT22;2583;50.946;6.954;2022-07-24T07:40:49;22.40;92.90
5130;DHT22;2583;50.946;6.954;2022-07-24T07:43:15;22.50;92.90
5130;DHT22;2583;50.946;6.954;2022-07-24T07:45:42;22.70;89.20
5130;DHT22;2583;50.946;6.954;2022-07-24T07:48:09;22.70;87.50
5130;DHT22;2583;50.946;6.954;2022-07-24T07:50:36;22.90;84.80
5130;DHT22;2583;50.946;6.954;2022-07-24T07:53:03;23.00;83.60
5130;DHT22;2583;50.946;6.954;2022-07-24T07:55:29;23.10;83.60
5130;DHT22;2583;50.946;6.954;2022-07-24T07:57:56;23.20;83.70
5130;DHT22;2583;50.946;6.954;2022-07-24T08:00:33;23.40;80.50
5130;DHT22;2583;50.946;6.954;2022-07-24T08:03:00;23.50;76.40
5130;DHT22;2583;50.946;6.954;2022-07-24T08:05:27;23.60;77.00
5130;DHT22;2583;50.946;6.954;2022-07-24T08:07:54;23.70;76.40
5130;DHT22;2583;50.946;6.954;2022-07-24T08:10:21;23.80;75.50
5130;DHT22;2583;50.946;6.954;2022-07-24T08:12:48;23.90;72.80
5130;DHT22;2583;50.946;6.954;2022-07-24T08:15:14;23.90;69.40
5130;DHT22;2583;50.946;6.954;2022-07-24T08:17:42;24.00;69.70
5130;DHT22;2583;50.946;6.954;2022-07-24T08:20:10;24.10;69.20
5130;DHT22;2583;50.946;6.954;2022-07-24T08:22:37;24.20;66.10
5130;DHT22;2583;50.946;6.954;2022-07-24T08:25:04;24.20;64.80
5130;DHT22;2583;50.946;6.954;2022-07-24T08:27:35;24.40;64.90
5130;DHT22;2583;50.946;6.954;2022-07-24T08:30:05;24.50;63.90
5130;DHT22;2583;50.946;6.954;2022-07-24T08:32:33;24.60;62.10
5130;DHT22;2583;50.946;6.954;2022-07-24T08:35:00;24.70;59.90
5130;DHT22;2583;50.946;6.954;2022-07-24T08:37:26;24.90;59.00
5130;DHT22;2583;50.946;6.954;2022-07-24T08:39:55;24.90;58.20
5130;DHT22;2583;50.946;6.954;2022-07-24T08:42:22;25.00;58.00
5130;DHT22;2583;50.946;6.954;2022-07-24T08:44:48;25.10;57.60
5130;DHT22;2583;50.946;6.954;2022-07-24T08:47:15;25.30;54.60
5130;DHT22;2583;50.946;6.954;2022-07-24T08:49:48;25.40;51.90
5130;DHT22;2583;50.946;6.954;2022-07-24T08:52:23;25.50;52.70
5130;DHT22;2583;50.946;6.954;2022-07-24T08:54:51;25.60;52.10
5130;DHT22;2583;50.946;6.954;2022-07-24T08:57:19;25.70;52.00
5130;DHT22;2583;50.946;6.954;2022-07-24T08:59:46;25.80;49.60
5130;DHT22;2583;50.946;6.954;2022-07-24T09:02:13;25.90;50.80
5130;DHT22;2583;50.946;6.954;2022-07-24T09:04:45;25.90;46.90
5130;DHT22;2583;50.946;6.954;2022-07-24T09:07:14;26.00;47.00
5130;DHT22;2583;50.946;6.954;2022-07-24T09:09:43;26.20;46.40
5130;DHT22;2583;50.946;6.954;2022-07-24T09:12:14;26.30;46.20
5130;DHT22;2583;50.946;6.954;2022-07-24T09:14:44;26.40;43.90
5130;DHT22;2583;50.946;6.954;2022-07-24T09:17:19;26.50;42.20
5130;DHT22;2583;50.946;6.954;2022-07-24T09:20:00;26.60;41.40
5130;DHT22;2583;50.946;6.954;2022-07-24T09:22:37;26.60;41.90
5130;DHT22;2583;50.946;6.954;2022-07-24T09:25:05;26.70;42.20
5130;DHT22;2583;50.946;6.954;2022-07-24T09:27:33;26.80;41.10
5130;DHT22;2583;50.946;6.954;2022-07-24T09:30:01;26.90;40.60
5130;DHT22;2583;50.946;6.954;2022-07-24T09:32:28;27.00;40.80
5130;DHT22;2583;50.946;6.954;2022-07-24T09:34:55;27.10;39.60
5130;DHT22;2583;50.946;6.954;2022-07-24T09:37:22;27.20;38.30
5130;DHT22;2583;50.946;6.954;2022-07-24T09:39:52;27.30;38.30
5130;DHT22;2583;50.946;6.954;2022-07-24T09:42:29;27.20;38.60
5130;DHT22;2583;50.946;6.954;2022-07-24T09:44:59;27.40;38.20
5130;DHT22;2583;50.946;6.954;2022-07-24T09:47:33;27.60;37.00
5130;DHT22;2583;50.946;6.954;2022-07-24T09:50:16;27.70;36.90
5130;DHT22;2583;50.946;6.954;2022-07-24T09:52:44;27.70;36.10
5130;DHT22;2583;50.946;6.954;2022-07-24T09:55:22;27.60;36.20
5130;DHT22;2583;50.946;6.954;2022-07-24T09:57:50;27.80;35.60
5130;DHT22;2583;50.946;6.954;2022-07-24T10:00:17;27.80;35.30
5130;DHT22;2583;50.946;6.954;2022-07-24T10:02:45;27.90;34.80
5130;DHT22;2583;50.946;6.954;2022-07-24T10:05:12;28.00;33.30
5130;DHT22;2583;50.946;6.954;2022-07-24T10:07:48;28.10;33.30
5130;DHT22;2583;50.946;6.954;2022-07-24T10:10:15;28.20;33.10
5130;DHT22;2583;50.946;6.954;2022-07-24T10:12:45;28.30;32.00
5130;DHT22;2583;50.946;6.954;2022-07-24T10:15:12;28.30;31.70
5130;DHT22;2583;50.946;6.954;2022-07-24T10:20:41;28.20;30.50
5130;DHT22;2583;50.946;6.954;2022-07-24T10:23:25;28.30;30.90
5130;DHT22;2583;50.946;6.954;2022-07-24T10:26:07;28.40;30.50
5130;DHT22;2583;50.946;6.954;2022-07-24T10:28:43;28.40;30.90
5130;DHT22;2583;50.946;6.954;2022-07-24T10:31:12;28.60;30.20
5130;DHT22;2583;50.946;6.954;2022-07-24T10:33:41;28.60;30.00
5130;DHT22;2583;50.946;6.954;2022-07-24T10:36:19;28.70;29.80
5130;DHT22;2583;50.946;6.954;2022-07-24T10:39:03;28.80;29.70
5130;DHT22;2583;50.946;6.954;2022-07-24T10:41:32;28.90;29.10
5130;DHT22;2583;50.946;6.954;2022-07-24T10:44:13;28.90;29.30
5130;DHT22;2583;50.946;6.954;2022-07-24T10:49:52;29.20;28.20
5130;DHT22;2583;50.946;6.954;2022-07-24T10:52:31;29.10;28.20
5130;DHT22;2583;50.946;6.954;2022-07-24T10:55:18;29.10;28.20
5130;DHT22;2583;50.946;6.954;2022-07-24T11:00:23;29.20;27.90
5130;DHT22;2583;50.946;6.954;2022-07-24T11:03:29;29.20;27.80
5130;DHT22;2583;50.946;6.954;2022-07-24T11:06:06;29.20;27.50
5130;DHT22;2583;50.946;6.954;2022-07-24T11:08:53;29.40;27.40
5130;DHT22;2583;50.946;6.954;2022-07-24T11:11:21;29.50;27.10
5130;DHT22;2583;50.946;6.954;2022-07-24T11:13:52;29.50;26.80
5130;DHT22;2583;50.946;6.954;2022-07-24T11:16:25;29.60;27.00
5130;DHT22;2583;50.946;6.954;2022-07-24T11:21:37;29.60;27.30
5130;DHT22;2583;50.946;6.954;2022-07-24T11:26:48;29.90;26.50
5130;DHT22;2583;50.946;6.954;2022-07-24T11:31:59;30.00;25.60
5130;DHT22;2583;50.946;6.954;2022-07-24T11:34:28;30.00;25.50
5130;DHT22;2583;50.946;6.954;2022-07-24T11:36:56;30.10;25.90
5130;DHT22;2583;50.946;6.954;2022-07-24T11:39:34;30.00;25.30
5130;DHT22;2583;50.946;6.954;2022-07-24T11:42:06;29.90;25.00
5130;DHT22;2583;50.946;6.954;2022-07-24T11:44:40;30.10;25.80
5130;DHT22;2583;50.946;6.954;2022-07-24T11:47:16;30.10;25.30
5130;DHT22;2583;50.946;6.954;2022-07-24T11:49:47;30.00;24.50
5130;DHT22;2583;50.946;6.954;2022-07-24T11:52:19;30.10;25.10
5130;DHT22;2583;50.946;6.954;2022-07-24T11:54:49;30.20;24.60
5130;DHT22;2583;50.946;6.954;2022-07-24T11:57:23;30.20;23.70
5130;DHT22;2583;50.946;6.954;2022-07-24T12:00:16;30.10;24.10
5130;DHT22;2583;50.946;6.954;2022-07-24T12:02:54;30.10;24.00
5130;DHT22;2583;50.946;6.954;2022-07-24T12:05:25;30.20;24.10
5130;DHT22;2583;50.946;6.954;2022-07-24T12:07:53;30.40;23.50
5130;DHT22;2583;50.946;6.954;2022-07-24T12:10:20;30.50;23.80
5130;DHT22;2583;50.946;6.954;2022-07-24T12:12:50;30.80;24.00
5130;DHT22;2583;50.946;6.954;2022-07-24T12:15:17;30.80;23.60
5130;DHT22;2583;50.946;6.954;2022-07-24T12:18:04;31.00;23.00
5130;DHT22;2583;50.946;6.954;2022-07-24T12:20:36;31.30;23.30
5130;DHT22;2583;50.946;6.954;2022-07-24T12:23:15;31.40;22.70
5130;DHT22;2583;50.946;6.954;2022-07-24T12:25:43;31.50;22.30
5130;DHT22;2583;50.946;6.954;2022-07-24T12:28:17;31.60;22.10
5130;DHT22;2583;50.946;6.954;2022-07-24T12:30:47;31.90;23.10
5130;DHT22;2583;50.946;6.954;2022-07-24T12:36:07;32.30;21.90
5130;DHT22;2583;50.946;6.954;2022-07-24T12:38:40;32.20;21.00
5130;DHT22;2583;50.946;6.954;2022-07-24T12:41:12;32.30;21.60
5130;DHT22;2583;50.946;6.954;2022-07-24T12:46:31;32.60;20.30
5130;DHT22;2583;50.946;6.954;2022-07-24T12:51:57;32.90;20.70
5130;DHT22;2583;50.946;6.954;2022-07-24T12:54:30;33.10;20.30
5130;DHT22;2583;50.946;6.954;2022-07-24T12:56:59;33.00;19.60
5130;DHT22;2583;50.946;6.954;2022-07-24T12:59:37;33.30;19.50
5130;DHT22;2583;50.946;6.954;2022-07-24T13:02:08;33.30;19.20
5130;DHT22;2583;50.946;6.954;2022-07-24T13:04:54;33.60;19.50
5130;DHT22;2583;50.946;6.954;2022-07-24T13:07:24;34.00;18.80
5130;DHT22;2583;50.946;6.954;2022-07-24T13:09:52;34.30;18.20
5130;DHT22;2583;50.946;6.954;2022-07-24T13:12:20;34.60;19.10
5130;DHT22;2583;50.946;6.954;2022-07-24T13:14:48;35.00;18.50
5130;DHT22;2583;50.946;6.954;2022-07-24T13:17:17;35.40;17.20
5130;DHT22;2583;50.946;6.954;2022-07-24T13:19:49;35.50;17.00
5130;DHT22;2583;50.946;6.954;2022-07-24T13:22:16;35.90;17.20
5130;DHT22;2583;50.946;6.954;2022-07-24T13:24:43;35.90;15.70
5130;DHT22;2583;50.946;6.954;2022-07-24T13:27:12;36.20;15.70
5130;DHT22;2583;50.946;6.954;2022-07-24T13:29:44;36.00;14.30
5130;DHT22;2583;50.946;6.954;2022-07-24T13:32:11;36.30;16.70
5130;DHT22;2583;50.946;6.954;2022-07-24T13:34:38;36.60;14.00
5130;DHT22;2583;50.946;6.954;2022-07-24T13:37:06;36.50;13.80
5130;DHT22;2583;50.946;6.954;2022-07-24T13:39:36;36.80;13.50
5130;DHT22;2583;50.946;6.954;2022-07-24T13:42:07;37.20;13.60
5130;DHT22;2583;50.946;6.954;2022-07-24T13:44:34;37.80;13.60
5130;DHT22;2583;50.946;6.954;2022-07-24T13:47:00;38.00;12.80
5130;DHT22;2583;50.946;6.954;2022-07-24T13:49:28;38.40;12.80
5130;DHT22;2583;50.946;6.954;2022-07-24T13:51:55;38.80;12.30
5130;DHT22;2583;50.946;6.954;2022-07-24T13:54:22;38.90;12.40
5130;DHT22;2583;50.946;6.954;2022-07-24T13:56:48;38.80;10.70
5130;DHT22;2583;50.946;6.954;2022-07-24T13:59:16;39.10;11.50
5130;DHT22;2583;50.946;6.954;2022-07-24T14:01:43;39.10;10.50
5130;DHT22;2583;50.946;6.954;2022-07-24T14:04:10;39.30;12.30
5130;DHT22;2583;50.946;6.954;2022-07-24T14:06:57;39.10;10.40
5130;DHT22;2583;50.946;6.954;2022-07-24T14:09:24;39.10;10.60
5130;DHT22;2583;50.946;6.954;2022-07-24T14:11:52;39.30;10.50
5130;DHT22;2583;50.946;6.954;2022-07-24T14:14:19;39.30;10.40
5130;DHT22;2583;50.946;6.954;2022-07-24T14:16:46;39.00;9.90
5130;DHT22;2583;50.946;6.954;2022-07-24T14:19:13;39.10;9.70
5130;DHT22;2583;50.946;6.954;2022-07-24T14:21:40;39.10;9.80
5130;DHT22;2583;50.946;6.954;2022-07-24T14:24:07;39.30;9.60
5130;DHT22;2583;50.946;6.954;2022-07-24T14:26:43;38.80;9.70
5130;DHT22;2583;50.946;6.954;2022-07-24T14:29:10;38.60;10.30
5130;DHT22;2583;50.946;6.954;2022-07-24T14:31:38;37.50;10.50
5130;DHT22;2583;50.946;6.954;2022-07-24T14:34:05;36.60;12.00
5130;DHT22;2583;50.946;6.954;2022-07-24T14:36:33;36.20;13.00
5130;DHT22;2583;50.946;6.954;2022-07-24T14:38:59;35.50;12.90
5130;DHT22;2583;50.946;6.954;2022-07-24T14:41:26;35.10;13.20
5130;DHT22;2583;50.946;6.954;2022-07-24T14:43:53;34.70;13.50
5130;DHT22;2583;50.946;6.954;2022-07-24T14:46:20;34.40;13.80
5130;DHT22;2583;50.946;6.954;2022-07-24T14:48:47;34.10;14.10
5130;DHT22;2583;50.946;6.954;2022-07-24T14:51:14;34.00;14.50
5130;DHT22;2583;50.946;6.954;2022-07-24T14:53:41;33.70;14.30
5130;DHT22;2583;50.946;6.954;2022-07-24T14:56:07;33.60;14.50
5130;DHT22;2583;50.946;6.954;2022-07-24T14:58:34;33.40;14.80
5130;DHT22;2583;50.946;6.954;2022-07-24T15:01:02;33.20;15.00
5130;DHT22;2583;50.946;6.954;2022-07-24T15:03:28;33.10;15.00
5130;DHT22;2583;50.946;6.954;2022-07-24T15:05:55;32.90;14.90
5130;DHT22;2583;50.946;6.954;2022-07-24T15:08:22;32.80;15.00
5130;DHT22;2583;50.946;6.954;2022-07-24T15:10:49;32.80;15.40
5130;DHT22;2583;50.946;6.954;2022-07-24T15:13:16;32.80;15.40
5130;DHT22;2583;50.946;6.954;2022-07-24T15:15:43;32.80;15.80
5130;DHT22;2583;50.946;6.954;2022-07-24T15:18:11;32.70;15.60
5130;DHT22;2583;50.946;6.954;2022-07-24T15:20:38;32.60;15.60
5130;DHT22;2583;50.946;6.954;2022-07-24T15:23:05;32.50;15.70
5130;DHT22;2583;50.946;6.954;2022-07-24T15:25:33;32.50;15.80
5130;DHT22;2583;50.946;6.954;2022-07-24T15:28:00;32.40;15.80
5130;DHT22;2583;50.946;6.954;2022-07-24T15:30:27;32.40;15.70
5130;DHT22;2583;50.946;6.954;2022-07-24T15:32:55;32.30;15.80
5130;DHT22;2583;50.946;6.954;2022-07-24T15:35:23;32.20;16.00
5130;DHT22;2583;50.946;6.954;2022-07-24T15:37:50;32.10;16.10
5130;DHT22;2583;50.946;6.954;2022-07-24T15:40:17;32.10;16.20
5130;DHT22;2583;50.946;6.954;2022-07-24T15:42:43;32.10;16.20
5130;DHT22;2583;50.946;6.954;2022-07-24T15:45:10;32.10;16.20
5130;DHT22;2583;50.946;6.954;2022-07-24T15:47:37;32.00;16.20
5130;DHT22;2583;50.946;6.954;2022-07-24T15:50:05;32.00;16.30
5130;DHT22;2583;50.946;6.954;2022-07-24T15:52:33;32.00;16.30
5130;DHT22;2583;50.946;6.954;2022-07-24T15:55:00;32.00;16.30
5130;DHT22;2583;50.946;6.954;2022-07-24T15:57:27;32.00;16.20
5130;DHT22;2583;50.946;6.954;2022-07-24T15:59:54;32.00;16.20
5130;DHT22;2583;50.946;6.954;2022-07-24T16:02:22;32.00;16.10
5130;DHT22;2583;50.946;6.954;2022-07-24T16:04:50;32.10;16.20
5130;DHT22;2583;50.946;6.954;2022-07-24T16:07:18;32.00;16.00
5130;DHT22;2583;50.946;6.954;2022-07-24T16:09:48;32.00;16.40
5130;DHT22;2583;50.946;6.954;2022-07-24T16:12:17;32.00;16.50
5130;DHT22;2583;50.946;6.954;2022-07-24T16:14:44;31.90;16.50
5130;DHT22;2583;50.946;6.954;2022-07-24T16:17:12;31.80;16.40
5130;DHT22;2583;50.946;6.954;2022-07-24T16:19:39;31.80;16.50
5130;DHT22;2583;50.946;6.954;2022-07-24T16:22:06;31.80;16.80
5130;DHT22;2583;50.946;6.954;2022-07-24T16:24:33;31.80;16.00
5130;DHT22;2583;50.946;6.954;2022-07-24T16:27:00;31.80;16.30
5130;DHT22;2583;50.946;6.954;2022-07-24T16:29:26;31.90;16.50
5130;DHT22;2583;50.946;6.954;2022-07-24T16:31:54;31.90;16.30
5130;DHT22;2583;50.946;6.954;2022-07-24T16:34:21;31.90;16.30
5130;DHT22;2583;50.946;6.954;2022-07-24T16:36:49;31.90;16.00